createdAt,value
2022-09-17T00:01:24.501Z,12.64
2022-09-17T00:03:53.656Z,12.63
2022-09-17T00:06:23.134Z,12.61
2022-09-17T00:08:51.272Z,12.59
2022-09-17T00:11:22.457Z,12.55
2022-09-17T00:13:51.081Z,12.53
2022-09-17T00:16:32.984Z,12.49
2022-09-17T00:19:01.168Z,12.48
2022-09-17T00:21:29.025Z,12.46
2022-09-17T00:24:01.307Z,12.42
2022-09-17T00:26:29.289Z,12.38
2022-09-17T00:28:57.589Z,12.37
2022-09-17T00:31:25.639Z,12.38
2022-09-17T00:33:53.457Z,12.36
2022-09-17T00:36:21.738Z,12.34
2022-09-17T00:38:59.635Z,12.34
2022-09-17T00:41:29.717Z,12.34
2022-09-17T00:43:59.037Z,12.35
2022-09-17T00:46:47.831Z,12.34
2022-09-17T00:49:18.165Z,12.34
2022-09-17T00:51:50.784Z,12.31
2022-09-17T00:54:18.475Z,12.30
2022-09-17T00:56:46.183Z,12.29
2022-09-17T00:59:14.090Z,12.29
2022-09-17T01:01:41.878Z,12.28
2022-09-17T01:04:20.121Z,12.27
2022-09-17T01:07:10.089Z,12.26
2022-09-17T01:09:58.281Z,12.24
2022-09-17T01:13:14.082Z,12.17
2022-09-17T01:15:56.259Z,12.13
2022-09-17T01:18:54.715Z,12.12
2022-09-17T01:21:43.903Z,12.11
2022-09-17T01:24:30.265Z,12.08
2022-09-17T01:27:45.551Z,12.05
2022-09-17T01:30:22.918Z,12.05
2022-09-17T01:32:57.791Z,12.05
2022-09-17T01:35:33.763Z,12.06
2022-09-17T01:38:25.731Z,12.04
2022-09-17T01:41:31.447Z,12.03
2022-09-17T01:44:32.525Z,12.06
2022-09-17T01:47:22.896Z,12.05
2022-09-17T01:49:52.776Z,12.04
2022-09-17T01:52:20.479Z,12.03
2022-09-17T01:54:50.338Z,12.03
2022-09-17T01:57:34.538Z,12.03
2022-09-17T02:00:10.608Z,12.04
2022-09-17T02:02:40.108Z,12.04
2022-09-17T02:05:10.042Z,12.04
2022-09-17T02:07:42.011Z,12.04
2022-09-17T02:10:13.784Z,12.00
2022-09-17T02:12:52.191Z,11.98
2022-09-17T02:15:22.705Z,11.97
2022-09-17T02:18:00.202Z,11.99
2022-09-17T02:20:43.874Z,11.99
2022-09-17T02:23:17.926Z,11.99
2022-09-17T02:25:50.269Z,11.99
2022-09-17T02:28:47.073Z,11.98
2022-09-17T02:31:15.004Z,11.96
2022-09-17T02:33:43.259Z,11.94
2022-09-17T02:36:10.973Z,11.93
2022-09-17T02:38:39.649Z,11.94
2022-09-17T02:41:19.902Z,11.93
2022-09-17T02:43:53.799Z,11.91
2022-09-17T02:46:31.402Z,11.89
2022-09-17T02:49:28.367Z,11.89
2022-09-17T02:52:20.380Z,11.86
2022-09-17T02:55:22.934Z,11.83
2022-09-17T02:57:57.558Z,11.82
2022-09-17T03:00:30.429Z,11.85
2022-09-17T03:03:32.025Z,11.80
2022-09-17T03:05:59.982Z,11.78
2022-09-17T03:08:32.081Z,11.74
2022-09-17T03:10:59.857Z,11.70
2022-09-17T03:13:27.682Z,11.71
2022-09-17T03:15:55.434Z,11.72
2022-09-17T03:18:23.258Z,11.70
2022-09-17T03:20:51.648Z,11.68
2022-09-17T03:23:19.757Z,11.69
2022-09-17T03:25:48.057Z,11.67
2022-09-17T03:28:15.744Z,11.70
2022-09-17T03:30:45.404Z,11.70
2022-09-17T03:33:13.617Z,11.69
2022-09-17T03:35:45.134Z,11.72
2022-09-17T03:38:16.129Z,11.72
2022-09-17T03:40:44.006Z,11.72
2022-09-17T03:43:11.812Z,11.67
2022-09-17T03:45:39.732Z,11.66
2022-09-17T03:48:07.489Z,11.68
2022-09-17T03:50:35.291Z,11.69
2022-09-17T03:53:03.049Z,11.70
2022-09-17T03:55:31.208Z,11.73
2022-09-17T03:57:59.456Z,11.73
2022-09-17T04:00:27.567Z,11.71
2022-09-17T04:02:58.436Z,11.70
2022-09-17T04:05:29.808Z,11.65
2022-09-17T04:07:57.930Z,11.67
2022-09-17T04:10:27.377Z,11.70
2022-09-17T04:12:55.862Z,11.69
2022-09-17T04:15:23.529Z,11.70
2022-09-17T04:18:05.247Z,11.71
2022-09-17T04:20:34.012Z,11.69
2022-09-17T04:23:01.791Z,11.66
2022-09-17T04:25:29.508Z,11.64
2022-09-17T04:27:57.205Z,11.62
2022-09-17T04:30:24.892Z,11.63
2022-09-17T04:32:52.678Z,11.63
2022-09-17T04:35:20.489Z,11.65
2022-09-17T04:37:58.170Z,11.68
2022-09-17T04:40:26.696Z,11.69
2022-09-17T04:42:58.105Z,11.70
2022-09-17T04:45:25.856Z,11.70
2022-09-17T04:47:53.584Z,11.72
2022-09-17T04:50:21.560Z,11.70
2022-09-17T04:52:50.714Z,11.68
2022-09-17T04:55:18.518Z,11.66
2022-09-17T04:57:50.005Z,11.67
2022-09-17T05:00:18.770Z,11.70
2022-09-17T05:02:48.758Z,11.70
2022-09-17T05:05:16.854Z,11.65
2022-09-17T05:07:45.176Z,11.63
2022-09-17T05:10:13.436Z,11.62
2022-09-17T05:12:41.437Z,11.62
2022-09-17T05:15:09.349Z,11.61
2022-09-17T05:17:37.075Z,11.59
2022-09-17T05:20:05.039Z,11.57
2022-09-17T05:22:32.848Z,11.55
2022-09-17T05:25:03.553Z,11.51
2022-09-17T05:27:31.286Z,11.48
2022-09-17T05:29:59.116Z,11.45
2022-09-17T05:32:26.842Z,11.43
2022-09-17T05:34:54.812Z,11.41
2022-09-17T05:37:22.501Z,11.37
2022-09-17T05:39:50.291Z,11.38
2022-09-17T05:42:18.034Z,11.38
2022-09-17T05:44:45.736Z,11.40
2022-09-17T05:47:13.467Z,11.41
2022-09-17T05:49:41.175Z,11.41
2022-09-17T05:52:09.022Z,11.43
2022-09-17T05:54:36.735Z,11.48
2022-09-17T05:57:04.456Z,11.54
2022-09-17T05:59:32.833Z,11.57
2022-09-17T06:02:00.905Z,11.55
2022-09-17T06:04:32.691Z,11.57
2022-09-17T06:07:04.832Z,11.57
2022-09-17T06:09:32.643Z,11.55
2022-09-17T06:12:00.325Z,11.54
2022-09-17T06:14:28.051Z,11.56
2022-09-17T06:16:57.104Z,11.54
2022-09-17T06:19:24.878Z,11.51
2022-09-17T06:21:52.922Z,11.49
2022-09-17T06:24:20.648Z,11.49
2022-09-17T06:26:48.398Z,11.47
2022-09-17T06:29:16.553Z,11.43
2022-09-17T06:31:45.824Z,11.40
2022-09-17T06:34:13.597Z,11.41
2022-09-17T06:36:41.319Z,11.40
2022-09-17T06:39:09.222Z,11.40
2022-09-17T06:41:38.376Z,11.35
2022-09-17T06:44:06.227Z,11.27
2022-09-17T06:46:34.381Z,11.27
2022-09-17T06:49:02.172Z,11.27
2022-09-17T06:51:31.225Z,11.28
2022-09-17T06:53:58.982Z,11.27
2022-09-17T06:56:26.752Z,11.27
2022-09-17T06:58:55.195Z,11.28
2022-09-17T07:01:23.226Z,11.35
2022-09-17T07:03:51.601Z,11.37
2022-09-17T07:06:19.373Z,11.36
2022-09-17T07:08:48.274Z,11.32
2022-09-17T07:11:17.155Z,11.30
2022-09-17T07:13:44.850Z,11.34
2022-09-17T07:16:14.185Z,11.34
2022-09-17T07:18:41.958Z,11.38
2022-09-17T07:21:11.053Z,11.39
2022-09-17T07:23:39.094Z,11.41
2022-09-17T07:26:13.612Z,11.47
2022-09-17T07:28:41.756Z,11.56
2022-09-17T07:31:15.260Z,11.63
2022-09-17T07:33:44.095Z,11.72
2022-09-17T07:36:13.132Z,11.78
2022-09-17T07:38:41.013Z,11.82
2022-09-17T07:41:13.720Z,11.97
2022-09-17T07:43:41.711Z,12.15
2022-09-17T07:46:10.207Z,12.02
2022-09-17T07:48:37.976Z,12.10
2022-09-17T07:51:05.876Z,12.21
2022-09-17T07:53:34.164Z,12.35
2022-09-17T07:56:02.244Z,12.55
2022-09-17T07:58:31.854Z,12.67
2022-09-17T08:01:09.813Z,12.88
2022-09-17T08:03:38.065Z,12.96
2022-09-17T08:06:10.550Z,13.13
2022-09-17T08:08:38.481Z,13.38
2022-09-17T08:11:32.469Z,13.59
2022-09-17T08:14:05.391Z,13.88
2022-09-17T08:16:33.337Z,14.14
2022-09-17T08:19:01.099Z,14.22
2022-09-17T08:21:29.067Z,14.37
2022-09-17T08:23:56.919Z,14.35
2022-09-17T08:26:26.095Z,14.42
2022-09-17T08:28:57.764Z,14.17
2022-09-17T08:31:29.505Z,14.07
2022-09-17T08:33:57.403Z,13.95
2022-09-17T08:36:29.300Z,13.96
2022-09-17T08:38:57.247Z,14.12
2022-09-17T08:41:35.455Z,14.39
2022-09-17T08:44:09.705Z,14.72
2022-09-17T08:46:49.890Z,15.05
2022-09-17T08:49:49.823Z,15.36
2022-09-17T08:52:35.994Z,15.44
2022-09-17T08:55:24.910Z,15.30
2022-09-17T08:58:11.662Z,15.12
2022-09-17T09:00:44.544Z,14.90
2022-09-17T09:03:38.504Z,14.86
2022-09-17T09:06:10.733Z,15.27
2022-09-17T09:08:48.417Z,15.62
2022-09-17T09:11:18.335Z,15.87
2022-09-17T09:13:48.178Z,16.05
2022-09-17T09:16:27.341Z,16.27
2022-09-17T09:19:08.318Z,16.59
2022-09-17T09:21:55.877Z,16.85
2022-09-17T09:24:27.614Z,16.82
2022-09-17T09:27:02.435Z,17.13
2022-09-17T09:29:47.705Z,17.52
2022-09-17T09:32:18.480Z,17.28
2022-09-17T09:34:47.027Z,16.79
2022-09-17T09:37:32.333Z,16.54
2022-09-17T09:40:14.372Z,16.57
2022-09-17T09:42:42.403Z,16.37
2022-09-17T09:45:49.956Z,16.11
2022-09-17T09:48:32.817Z,16.29
2022-09-17T09:51:12.468Z,16.57
2022-09-17T09:54:09.066Z,16.45
2022-09-17T09:56:40.151Z,16.42
2022-09-17T09:59:09.737Z,16.38
2022-09-17T10:01:40.050Z,16.53
2022-09-17T10:04:26.033Z,16.77
2022-09-17T10:06:55.271Z,16.52
2022-09-17T10:09:23.640Z,16.23
2022-09-17T10:12:01.283Z,16.17
2022-09-17T10:14:30.833Z,16.09
2022-09-17T10:17:20.639Z,16.13
2022-09-17T10:20:11.799Z,16.04
2022-09-17T10:22:49.061Z,15.95
2022-09-17T10:25:23.492Z,15.79
2022-09-17T10:27:51.313Z,15.57
2022-09-17T10:30:19.531Z,15.43
2022-09-17T10:33:15.942Z,15.27
2022-09-17T10:35:48.772Z,15.13
2022-09-17T10:38:36.095Z,15.09
2022-09-17T10:41:26.741Z,15.09
2022-09-17T10:43:54.562Z,15.17
2022-09-17T10:46:30.314Z,15.20
2022-09-17T10:49:24.181Z,15.08
2022-09-17T10:51:51.858Z,14.99
2022-09-17T10:54:19.420Z,15.13
2022-09-17T10:56:50.983Z,15.27
2022-09-17T10:59:41.669Z,15.40
2022-09-17T11:02:30.952Z,15.64
2022-09-17T11:05:36.315Z,15.50
2022-09-17T11:08:12.312Z,15.66
2022-09-17T11:10:46.505Z,15.67
2022-09-17T11:13:39.117Z,15.62
2022-09-17T11:16:45.199Z,15.54
2022-09-17T11:19:37.813Z,15.20
2022-09-17T11:22:18.517Z,14.73
2022-09-17T11:24:50.033Z,14.50
2022-09-17T11:27:24.451Z,14.29
2022-09-17T11:30:01.182Z,14.03
2022-09-17T11:32:41.936Z,13.65
2022-09-17T11:35:22.537Z,13.27
2022-09-17T11:38:06.326Z,13.03
2022-09-17T11:40:37.146Z,12.90
2022-09-17T11:43:10.049Z,12.84
2022-09-17T11:45:42.928Z,12.87
2022-09-17T11:48:17.123Z,13.01
2022-09-17T11:51:15.897Z,13.09
2022-09-17T11:53:54.256Z,13.06
2022-09-17T11:56:28.767Z,13.08
2022-09-17T11:59:21.281Z,13.08
2022-09-17T12:02:01.164Z,13.06
2022-09-17T12:04:46.071Z,12.94
2022-09-17T12:07:24.369Z,12.86
2022-09-17T12:10:05.059Z,12.98
2022-09-17T12:12:48.990Z,13.26
2022-09-17T12:15:28.169Z,13.31
2022-09-17T12:18:30.493Z,13.30
2022-09-17T12:20:53.927Z,13.32
2022-09-17T12:23:33.006Z,13.28
2022-09-17T12:26:34.554Z,13.34
2022-09-17T12:29:13.555Z,13.38
2022-09-17T12:31:56.009Z,13.82
2022-09-17T12:34:33.371Z,14.29
2022-09-17T12:37:28.378Z,14.39
2022-09-17T12:40:27.199Z,14.33
2022-09-17T12:43:11.012Z,14.30
2022-09-17T12:45:50.890Z,14.35
2022-09-17T12:49:04.217Z,14.65
2022-09-17T12:51:51.028Z,15.00
2022-09-17T12:54:30.809Z,15.39
2022-09-17T12:57:04.581Z,15.37
2022-09-17T12:59:34.188Z,15.55
2022-09-17T13:02:05.882Z,16.06
2022-09-17T13:05:00.648Z,16.39
2022-09-17T13:07:32.319Z,16.61
2022-09-17T13:10:24.558Z,16.67
2022-09-17T13:12:59.398Z,17.15
2022-09-17T13:15:37.101Z,17.18
2022-09-17T13:18:26.620Z,16.72
2022-09-17T13:21:35.575Z,16.19
2022-09-17T13:24:03.324Z,15.75
2022-09-17T13:26:36.416Z,15.36
2022-09-17T13:29:05.669Z,15.14
2022-09-17T13:34:21.427Z,15.29
2022-09-17T13:37:21.504Z,15.59
2022-09-17T13:39:52.785Z,15.40
2022-09-17T13:42:33.254Z,15.21
2022-09-17T13:45:08.769Z,15.07
2022-09-17T13:47:40.239Z,14.93
2022-09-17T13:50:09.962Z,14.75
2022-09-17T13:52:48.088Z,14.49
2022-09-17T13:55:36.433Z,14.09
2022-09-17T13:58:05.493Z,13.75
2022-09-17T14:00:57.337Z,13.50
2022-09-17T14:03:38.796Z,13.28
2022-09-17T14:06:06.387Z,13.36
2022-09-17T14:08:46.299Z,13.47
2022-09-17T14:11:33.498Z,13.44
2022-09-17T14:14:04.178Z,13.39
2022-09-17T14:16:43.434Z,13.37
2022-09-17T14:19:17.379Z,13.57
2022-09-17T14:22:03.112Z,14.13
2022-09-17T14:24:36.217Z,14.73
2022-09-17T14:27:21.172Z,14.95
2022-09-17T14:30:13.596Z,15.15
2022-09-17T14:33:02.346Z,15.32
2022-09-17T14:35:31.227Z,15.55
2022-09-17T14:38:24.061Z,15.62
2022-09-17T14:41:13.006Z,15.40
2022-09-17T14:44:03.572Z,15.15
2022-09-17T14:46:58.314Z,15.16
2022-09-17T14:49:29.942Z,14.98
2022-09-17T14:51:58.514Z,14.80
2022-09-17T14:57:29.137Z,14.56
2022-09-17T14:59:57.818Z,14.41
2022-09-17T15:02:46.933Z,14.19
2022-09-17T15:05:19.725Z,13.97
2022-09-17T15:07:47.595Z,13.86
2022-09-17T15:10:22.841Z,13.85
2022-09-17T15:12:50.801Z,13.82
2022-09-17T15:15:23.255Z,13.72
2022-09-17T15:17:51.296Z,13.63
2022-09-17T15:23:20.445Z,13.48
2022-09-17T15:26:30.542Z,13.45
2022-09-17T15:28:58.507Z,13.55
2022-09-17T15:31:26.333Z,13.60
2022-09-17T15:33:54.091Z,13.69
2022-09-17T15:36:25.960Z,13.63
2022-09-17T15:38:53.862Z,13.62
2022-09-17T15:41:35.865Z,13.71
2022-09-17T15:44:30.903Z,13.57
2022-09-17T15:53:11.870Z,13.49
2022-09-17T15:55:42.607Z,13.38
2022-09-17T15:58:26.327Z,13.37
2022-09-17T16:01:20.900Z,13.32
2022-09-17T16:04:06.014Z,13.31
2022-09-17T16:06:34.335Z,13.13
2022-09-17T16:09:02.399Z,13.09
2022-09-17T16:11:33.459Z,13.19
2022-09-17T16:14:01.915Z,13.11
2022-09-17T16:16:38.148Z,13.20
2022-09-17T16:19:07.424Z,13.27
2022-09-17T16:21:35.199Z,13.23
2022-09-17T16:24:03.204Z,13.18
2022-09-17T16:26:32.359Z,13.13
2022-09-17T16:29:05.466Z,13.09
2022-09-17T16:31:33.316Z,13.09
2022-09-17T16:34:01.803Z,13.03
2022-09-17T16:36:32.160Z,13.01
2022-09-17T16:39:00.322Z,12.97
2022-09-17T16:41:28.100Z,12.98
2022-09-17T16:43:55.829Z,12.94
2022-09-17T16:46:23.559Z,12.86
2022-09-17T16:48:51.688Z,12.86
2022-09-17T16:51:19.523Z,12.88
2022-09-17T16:53:47.272Z,12.80
2022-09-17T16:56:15.786Z,12.76
2022-09-17T16:58:43.606Z,12.70
2022-09-17T17:01:17.006Z,12.68
2022-09-17T17:03:46.786Z,12.66
2022-09-17T17:06:18.275Z,12.60
2022-09-17T17:08:46.049Z,12.60
2022-09-17T17:11:13.933Z,12.55
2022-09-17T17:13:43.518Z,12.53
2022-09-17T17:16:12.314Z,12.41
2022-09-17T17:18:40.306Z,12.41
2022-09-17T17:21:09.122Z,12.41
2022-09-17T17:23:36.901Z,12.37
2022-09-17T17:26:04.936Z,12.28
2022-09-17T17:28:36.052Z,12.30
2022-09-17T17:31:05.167Z,12.29
2022-09-17T17:33:33.089Z,12.27
2022-09-17T17:36:07.369Z,12.21
2022-09-17T17:38:35.529Z,12.18
2022-09-17T17:41:13.300Z,12.14
2022-09-17T17:43:41.304Z,12.13
2022-09-17T17:46:10.478Z,12.10
2022-09-17T17:48:38.465Z,12.12
2022-09-17T17:51:07.480Z,12.10
2022-09-17T17:53:35.403Z,12.05
2022-09-17T17:56:05.452Z,11.99
2022-09-17T17:58:33.387Z,12.03
2022-09-17T18:01:01.199Z,12.05
2022-09-17T18:03:28.926Z,12.09
2022-09-17T18:05:59.685Z,12.03
2022-09-17T18:08:27.335Z,12.04
2022-09-17T18:10:59.035Z,12.07
2022-09-17T18:13:26.852Z,12.07
2022-09-17T18:15:56.095Z,12.04
2022-09-17T18:18:24.407Z,12.02
2022-09-17T18:20:54.299Z,12.05
2022-09-17T18:23:22.156Z,12.08
2022-09-17T18:25:56.807Z,12.07
2022-09-17T18:28:24.636Z,12.06
2022-09-17T18:33:30.968Z,12.13
2022-09-17T18:36:02.315Z,12.08
2022-09-17T18:38:32.138Z,12.07
2022-09-17T18:43:35.619Z,12.11
2022-09-17T18:46:04.794Z,12.08
2022-09-17T18:48:36.310Z,12.11
2022-09-17T18:51:09.663Z,12.11
2022-09-17T18:53:38.123Z,12.16
2022-09-17T18:56:21.977Z,12.16
2022-09-17T18:58:51.088Z,12.15
2022-09-17T19:01:19.112Z,12.14
2022-09-17T19:03:46.828Z,12.14
2022-09-17T19:06:16.290Z,12.08
2022-09-17T19:08:44.156Z,12.10
2022-09-17T19:11:12.329Z,12.10
2022-09-17T19:13:41.628Z,12.12
2022-09-17T19:16:09.479Z,12.09
2022-09-17T19:18:38.285Z,12.04
2022-09-17T19:21:11.633Z,12.03
2022-09-17T19:23:43.331Z,12.02
2022-09-17T19:26:16.609Z,12.00
2022-09-17T19:28:44.605Z,11.99
2022-09-17T19:31:14.021Z,11.96
2022-09-17T19:33:41.806Z,11.93
2022-09-17T19:36:11.962Z,11.92
2022-09-17T19:38:39.865Z,11.91
2022-09-17T19:41:18.240Z,11.92
2022-09-17T19:43:49.022Z,11.87
2022-09-17T19:46:18.935Z,11.81
2022-09-17T19:48:47.924Z,11.82
2022-09-17T19:51:16.103Z,11.81
2022-09-17T19:53:43.856Z,11.80
2022-09-17T19:56:13.970Z,11.79
2022-09-17T19:58:41.920Z,11.77
2022-09-17T20:01:09.626Z,11.71
2022-09-17T20:03:39.326Z,11.71
2022-09-17T20:06:08.485Z,11.68
2022-09-17T20:08:43.516Z,11.66
2022-09-17T20:11:13.847Z,11.63
2022-09-17T20:13:41.612Z,11.55
2022-09-17T20:16:14.842Z,11.59
2022-09-17T20:18:42.962Z,11.59
2022-09-17T20:21:17.815Z,11.56
2022-09-17T20:23:45.544Z,11.54
2022-09-17T20:26:13.601Z,11.56
2022-09-17T20:28:41.355Z,11.56
2022-09-17T20:31:13.405Z,11.55
2022-09-17T20:33:41.442Z,11.49
2022-09-17T20:36:12.282Z,11.50
2022-09-17T20:41:28.825Z,11.50
2022-09-17T20:43:56.848Z,11.49
2022-09-17T20:46:28.906Z,11.44
2022-09-17T20:48:58.671Z,11.42
2022-09-17T20:51:30.623Z,11.43
2022-09-17T20:53:58.428Z,11.42
2022-09-17T20:56:28.074Z,11.41
2022-09-17T20:59:04.155Z,11.38
2022-09-17T21:01:33.846Z,11.38
2022-09-17T21:04:01.938Z,11.32
2022-09-17T21:06:31.289Z,11.35
2022-09-17T21:09:01.175Z,11.28
2022-09-17T21:11:29.710Z,11.31
2022-09-17T21:13:57.494Z,11.30
2022-09-17T21:16:25.964Z,11.30
2022-09-17T21:19:02.512Z,11.30
2022-09-17T21:21:30.532Z,11.30
2022-09-17T21:24:04.120Z,11.31
2022-09-17T21:26:31.829Z,11.30
2022-09-17T21:28:59.583Z,11.22
2022-09-17T21:31:33.229Z,11.27
2022-09-17T21:34:02.613Z,11.23
2022-09-17T21:36:31.860Z,11.23
2022-09-17T21:39:01.595Z,11.26
2022-09-17T21:41:29.545Z,11.28
2022-09-17T21:43:57.301Z,11.32
2022-09-17T21:46:26.553Z,11.36
2022-09-17T21:48:55.020Z,11.39
2022-09-17T21:51:23.853Z,11.40
2022-09-17T21:53:52.763Z,11.40
2022-09-17T21:56:20.827Z,11.32
2022-09-17T21:58:52.014Z,11.30
2022-09-17T22:01:24.431Z,11.30
2022-09-17T22:03:53.345Z,11.21
2022-09-17T22:06:22.732Z,11.24
2022-09-17T22:08:52.652Z,11.22
2022-09-17T22:11:22.147Z,11.26
2022-09-17T22:14:00.014Z,11.26
2022-09-17T22:16:28.949Z,11.25
2022-09-17T22:18:56.723Z,11.29
2022-09-17T22:21:25.625Z,11.30
2022-09-17T22:23:54.405Z,11.32
2022-09-17T22:26:23.415Z,11.31
2022-09-17T22:28:51.420Z,11.33
2022-09-17T22:31:19.505Z,11.37
2022-09-17T22:33:48.351Z,11.33
2022-09-17T22:36:21.062Z,11.24
2022-09-17T22:38:50.625Z,11.20
2022-09-17T22:41:23.516Z,11.11
2022-09-17T22:43:55.300Z,11.06
2022-09-17T22:46:24.733Z,11.01
2022-09-17T22:48:52.735Z,10.96
2022-09-17T22:51:20.479Z,10.90
2022-09-17T22:53:48.234Z,10.82
2022-09-17T22:56:17.039Z,10.78
2022-09-17T22:58:44.869Z,10.71
2022-09-17T23:01:17.688Z,10.73
2022-09-17T23:03:45.792Z,10.76
2022-09-17T23:06:15.503Z,10.82
2022-09-17T23:08:43.238Z,10.84
2022-09-17T23:11:17.180Z,10.77
2022-09-17T23:13:45.022Z,10.76
2022-09-17T23:16:12.877Z,10.76
2022-09-17T23:18:40.673Z,10.78
2022-09-17T23:21:11.090Z,10.77
2022-09-17T23:23:38.889Z,10.73
2022-09-17T23:26:08.089Z,10.77
2022-09-17T23:28:36.451Z,10.76
2022-09-17T23:31:29.208Z,10.74
2022-09-17T23:33:57.261Z,10.76
2022-09-17T23:36:36.421Z,10.73
2022-09-17T23:39:04.304Z,10.69
2022-09-17T23:41:38.929Z,10.69
2022-09-17T23:44:13.678Z,10.69
2022-09-17T23:46:43.025Z,10.69
2022-09-17T23:49:11.268Z,10.72
2022-09-17T23:51:39.102Z,10.71
2022-09-17T23:54:08.127Z,10.72
2022-09-17T23:56:36.038Z,10.68
2022-09-17T23:59:04.284Z,10.64
